Time,TemperatureF,DewpointF,PressureIn,WindDirection,WindDirectionDegrees,WindSpeedMPH,WindSpeedGustMPH,Humidity,HourlyPrecipIn,Conditions,Clouds,dailyrainin,SoftwareType,DateUTC
2013-02-05 00:01:00,31.0,-29.0,30.26,South,177,6.0,9.0,6,0.00,,,0.00,,2013-02-05 07:01:00,
2013-02-05 00:22:00,31.0,-29.0,30.27,South,181,7.0,11.0,6,0.00,,,0.00,,2013-02-05 07:22:00,
2013-02-05 00:31:00,30.0,-27.0,30.27,South,180,4.0,7.0,7,0.00,,,0.00,,2013-02-05 07:31:00,
2013-02-05 00:41:00,30.0,-27.0,30.27,South,180,4.0,7.0,7,0.00,,,0.00,,2013-02-05 07:41:00,
2013-02-05 00:52:00,31.0,-26.0,30.27,South,181,2.0,6.0,7,0.00,,,0.00,,2013-02-05 07:52:00,
2013-02-05 01:01:00,31.0,-26.0,30.27,North,0,0.0,3.0,7,0.00,,,0.00,,2013-02-05 08:01:00,
2013-02-05 01:21:00,31.0,-23.0,30.27,North,0,0.0,2.0,8,0.00,,,0.00,,2013-02-05 08:21:00,
2013-02-05 01:31:00,30.0,-13.0,30.26,South,181,2.0,4.0,14,0.00,,,0.00,,2013-02-05 08:31:00,
2013-02-05 01:41:00,30.0,-13.0,30.26,South,181,2.0,4.0,14,0.00,,,0.00,,2013-02-05 08:41:00,
2013-02-05 01:52:00,30.0,-15.0,30.27,North,0,0.0,0.0,13,0.00,,,0.00,,2013-02-05 08:52:00,
2013-02-05 02:02:00,29.0,-16.0,30.27,North,0,0.0,0.0,13,0.00,,,0.00,,2013-02-05 09:02:00,
2013-02-05 02:11:00,29.0,-16.0,30.27,South,181,4.0,6.0,13,0.00,,,0.00,,2013-02-05 09:11:00,
2013-02-05 02:21:00,29.0,-16.0,30.27,South,181,4.0,6.0,13,0.00,,,0.00,,2013-02-05 09:21:00,
2013-02-05 02:31:00,30.0,-9.0,30.27,SSE,162,7.0,8.0,17,0.00,,,0.00,,2013-02-05 09:31:00,
2013-02-05 02:41:00,30.0,-9.0,30.27,SSE,162,7.0,8.0,17,0.00,,,0.00,,2013-02-05 09:41:00,
2013-02-05 02:52:00,29.0,-2.0,30.26,SE,129,7.0,14.0,25,0.00,,,0.00,,2013-02-05 09:52:00,
2013-02-05 03:01:00,30.0,12.0,30.25,SE,146,9.0,16.0,46,0.00,,,0.00,,2013-02-05 10:01:00,
2013-02-05 03:11:00,30.0,14.0,30.26,SE,138,7.0,14.0,51,0.00,,,0.00,,2013-02-05 10:11:00,
2013-02-05 03:21:00,30.0,14.0,30.26,SE,138,7.0,14.0,51,0.00,,,0.00,,2013-02-05 10:21:00,
2013-02-05 03:31:00,30.0,15.0,30.26,SE,128,7.0,14.0,53,0.00,,,0.00,,2013-02-05 10:31:00,
2013-02-05 03:42:00,30.0,15.0,30.26,SE,128,7.0,14.0,53,0.00,,,0.00,,2013-02-05 10:42:00,
2013-02-05 03:52:00,29.0,15.0,30.25,SE,143,10.0,17.0,55,0.00,,,0.00,,2013-02-05 10:52:00,
2013-02-05 04:01:00,30.0,15.0,30.25,SE,138,9.0,18.0,54,0.00,,,0.00,,2013-02-05 11:01:00,
2013-02-05 04:21:00,31.0,12.0,30.24,SE,146,14.0,19.0,45,0.00,,,0.00,,2013-02-05 11:21:00,
2013-02-05 04:31:00,32.0,9.0,30.24,SE,146,14.0,23.0,37,0.00,,,0.00,,2013-02-05 11:31:00,
2013-02-05 04:41:00,32.0,9.0,30.24,SE,146,14.0,23.0,37,0.00,,,0.00,,2013-02-05 11:41:00,
2013-02-05 04:52:00,32.0,7.0,30.24,SSE,149,14.0,23.0,34,0.00,,,0.00,,2013-02-05 11:52:00,
2013-02-05 05:01:00,32.0,6.0,30.23,SE,144,14.0,25.0,32,0.00,,,0.00,,2013-02-05 12:01:00,
2013-02-05 05:21:00,31.0,7.0,30.23,SE,141,13.0,22.0,35,0.00,,,0.00,,2013-02-05 12:21:00,
2013-02-05 05:31:00,31.0,8.0,30.23,SE,146,14.0,23.0,37,0.00,,,0.00,,2013-02-05 12:31:00,
2013-02-05 05:41:00,31.0,8.0,30.23,SE,146,14.0,23.0,37,0.00,,,0.00,,2013-02-05 12:41:00,
2013-02-05 05:52:00,31.0,8.0,30.24,SSE,151,13.0,19.0,38,0.00,,,0.00,,2013-02-05 12:52:00,
2013-02-05 06:01:00,32.0,6.0,30.24,SSE,150,12.0,21.0,33,0.00,,,0.00,,2013-02-05 13:01:00,
2013-02-05 06:11:00,32.0,7.0,30.23,SSE,154,20.0,28.0,35,0.00,,,0.00,,2013-02-05 13:11:00,
2013-02-05 06:21:00,32.0,7.0,30.23,SSE,154,20.0,28.0,35,0.00,,,0.00,,2013-02-05 13:21:00,
2013-02-05 06:31:00,32.0,6.0,30.23,SSE,154,20.0,28.0,33,0.00,,,0.00,,2013-02-05 13:31:00,
2013-02-05 06:41:00,32.0,6.0,30.23,SSE,154,20.0,28.0,33,0.00,,,0.00,,2013-02-05 13:41:00,
2013-02-05 06:52:00,32.0,6.0,30.23,SSE,156,19.0,26.0,33,0.00,,,0.00,,2013-02-05 13:52:00,
2013-02-05 07:01:00,32.0,6.0,30.24,SSE,153,14.0,26.0,32,0.00,,,0.00,,2013-02-05 14:01:00,
2013-02-05 07:21:00,32.0,5.0,30.23,SSE,150,15.0,24.0,31,0.00,,,0.00,,2013-02-05 14:21:00,
2013-02-05 07:31:00,31.0,5.0,30.23,SSE,154,13.0,21.0,33,0.00,,,0.00,,2013-02-05 14:31:00,
2013-02-05 07:41:00,31.0,5.0,30.23,SSE,154,13.0,21.0,33,0.00,,,0.00,,2013-02-05 14:41:00,
2013-02-05 07:52:00,31.0,5.0,30.23,SSE,158,16.0,23.0,33,0.00,,,0.00,,2013-02-05 14:52:00,
2013-02-05 08:01:00,32.0,5.0,30.26,SSE,159,15.0,22.0,31,0.00,,,0.00,,2013-02-05 15:01:00,
2013-02-05 08:21:00,32.0,5.0,30.26,South,172,11.0,21.0,31,0.00,,,0.00,,2013-02-05 15:21:00,
2013-02-05 08:32:00,31.0,7.0,30.27,South,177,10.0,18.0,35,0.00,,,0.00,,2013-02-05 15:32:00,
2013-02-05 08:41:00,31.0,7.0,30.27,South,177,10.0,18.0,35,0.00,,,0.00,,2013-02-05 15:41:00,
2013-02-05 08:52:00,31.0,7.0,30.27,South,181,10.0,16.0,35,0.00,,,0.00,,2013-02-05 15:52:00,
2013-02-05 09:01:00,32.0,8.0,30.28,South,187,4.0,11.0,36,0.00,,,0.00,,2013-02-05 16:01:00,
2013-02-05 09:22:00,31.0,10.0,30.29,SSW,192,5.0,11.0,41,0.00,,,0.00,,2013-02-05 16:22:00,
2013-02-05 09:32:00,32.0,11.0,30.29,SSW,192,5.0,7.0,41,0.00,,,0.00,,2013-02-05 16:32:00,
2013-02-05 09:41:00,32.0,11.0,30.29,SSW,192,5.0,7.0,41,0.00,,,0.00,,2013-02-05 16:41:00,
2013-02-05 09:52:00,33.0,11.0,30.30,North,0,0.0,7.0,39,0.00,,,0.00,,2013-02-05 16:52:00,
2013-02-05 10:01:00,32.0,10.0,30.29,SSW,193,6.0,10.0,40,0.00,,,0.00,,2013-02-05 17:01:00,
2013-02-05 10:21:00,34.0,9.0,30.30,SSW,193,5.0,9.0,35,0.00,,,0.00,,2013-02-05 17:21:00,
2013-02-05 10:32:00,34.0,10.0,30.30,SSW,193,5.0,10.0,36,0.00,,,0.00,,2013-02-05 17:32:00,
2013-02-05 10:41:00,34.0,10.0,30.30,SSW,193,5.0,10.0,36,0.00,,,0.00,,2013-02-05 17:41:00,
2013-02-05 10:52:00,34.0,12.0,30.30,North,0,0.0,6.0,39,0.00,,,0.00,,2013-02-05 17:52:00,
2013-02-05 11:01:00,35.0,11.0,30.29,SSW,193,1.0,5.0,36,0.00,,,0.00,,2013-02-05 18:01:00,
2013-02-05 11:21:00,36.0,10.0,30.29,SSW,193,1.0,7.0,34,0.00,,,0.00,,2013-02-05 18:21:00,
2013-02-05 11:31:00,36.0,13.0,30.30,SSW,193,1.0,4.0,38,0.00,,,0.00,,2013-02-05 18:31:00,
2013-02-05 11:42:00,36.0,13.0,30.30,SSW,193,1.0,4.0,38,0.00,,,0.00,,2013-02-05 18:42:00,
2013-02-05 11:52:00,35.0,12.0,30.30,SSW,193,2.0,7.0,38,0.00,,,0.00,,2013-02-05 18:52:00,
2013-02-05 12:01:00,35.0,14.0,30.29,SSW,193,2.0,5.0,41,0.00,,,0.00,,2013-02-05 19:01:00,
2013-02-05 12:11:00,35.0,14.0,30.29,SSW,193,2.0,5.0,41,0.00,,,0.00,,2013-02-05 19:11:00,
2013-02-05 12:21:00,35.0,13.0,30.29,North,0,0.0,3.0,39,0.00,,,0.00,,2013-02-05 19:21:00,
2013-02-05 12:31:00,36.0,15.0,30.28,SSW,193,1.0,5.0,41,0.00,,,0.00,,2013-02-05 19:31:00,
2013-02-05 12:42:00,36.0,15.0,30.28,SSW,193,1.0,5.0,41,0.00,,,0.00,,2013-02-05 19:42:00,
2013-02-05 12:52:00,35.0,14.0,30.27,SSW,193,1.0,4.0,41,0.00,,,0.00,,2013-02-05 19:52:00,
2013-02-05 13:01:00,34.0,14.0,30.26,SSW,192,3.0,5.0,44,0.00,,,0.00,,2013-02-05 20:01:00,
2013-02-05 13:11:00,34.0,14.0,30.26,SSW,192,3.0,5.0,44,0.00,,,0.00,,2013-02-05 20:11:00,
2013-02-05 13:21:00,34.0,16.0,30.25,North,0,0.0,7.0,48,0.01,,,0.01,,2013-02-05 20:21:00,
2013-02-05 13:31:00,34.0,15.0,30.25,North,0,0.0,0.0,46,0.02,,,0.02,,2013-02-05 20:31:00,
2013-02-05 13:41:00,34.0,15.0,30.25,North,0,0.0,0.0,46,0.02,,,0.02,,2013-02-05 20:41:00,
2013-02-05 13:52:00,35.0,15.0,30.24,North,0,0.0,0.0,43,0.04,,,0.04,,2013-02-05 20:52:00,
2013-02-05 14:01:00,34.0,15.0,30.24,North,0,0.0,0.0,45,0.04,,,0.04,,2013-02-05 21:01:00,
2013-02-05 14:11:00,34.0,15.0,30.24,North,0,0.0,0.0,45,0.04,,,0.04,,2013-02-05 21:11:00,
2013-02-05 14:21:00,34.0,14.0,30.24,North,0,0.0,0.0,43,0.03,,,0.04,,2013-02-05 21:21:00,
2013-02-05 14:31:00,35.0,15.0,30.23,North,0,0.0,0.0,44,0.02,,,0.04,,2013-02-05 21:31:00,
2013-02-05 14:41:00,35.0,15.0,30.23,North,0,0.0,0.0,44,0.02,,,0.04,,2013-02-05 21:41:00,
2013-02-05 14:52:00,34.0,13.0,30.23,North,0,0.0,0.0,42,0.00,,,0.04,,2013-02-05 21:52:00,
2013-02-05 15:01:00,34.0,14.0,30.22,North,0,0.0,0.0,44,0.00,,,0.04,,2013-02-05 22:01:00,
2013-02-05 15:11:00,34.0,14.0,30.22,North,0,0.0,0.0,44,0.00,,,0.04,,2013-02-05 22:11:00,
2013-02-05 15:21:00,35.0,14.0,30.23,North,0,0.0,0.0,42,0.00,,,0.04,,2013-02-05 22:21:00,
2013-02-05 15:31:00,35.0,14.0,30.22,North,0,0.0,0.0,41,0.00,,,0.04,,2013-02-05 22:31:00,
2013-02-05 15:41:00,35.0,14.0,30.22,North,0,0.0,0.0,41,0.00,,,0.04,,2013-02-05 22:41:00,
2013-02-05 15:52:00,36.0,15.0,30.23,North,0,0.0,0.0,42,0.00,,,0.04,,2013-02-05 22:52:00,
2013-02-05 16:01:00,35.0,15.0,30.23,North,0,0.0,0.0,43,0.00,,,0.04,,2013-02-05 23:01:00,
2013-02-05 16:11:00,35.0,15.0,30.23,North,0,0.0,0.0,43,0.00,,,0.04,,2013-02-05 23:11:00,
2013-02-05 16:21:00,35.0,14.0,30.22,North,0,0.0,0.0,42,0.00,,,0.04,,2013-02-05 23:21:00,
2013-02-05 16:31:00,35.0,14.0,30.22,North,0,0.0,0.0,42,0.00,,,0.04,,2013-02-05 23:31:00,
2013-02-05 16:41:00,35.0,14.0,30.22,North,0,0.0,0.0,42,0.00,,,0.04,,2013-02-05 23:41:00,
2013-02-05 16:52:00,34.0,14.0,30.22,North,0,0.0,0.0,44,0.00,,,0.04,,2013-02-05 23:52:00,
2013-02-05 17:01:00,34.0,14.0,30.22,North,0,0.0,0.0,44,0.00,,,0.04,,2013-02-06 00:01:00,
2013-02-05 17:11:00,34.0,14.0,30.22,North,0,0.0,0.0,44,0.00,,,0.04,,2013-02-06 00:11:00,
2013-02-05 17:21:00,34.0,15.0,30.22,North,0,0.0,0.0,46,0.00,,,0.04,,2013-02-06 00:21:00,
2013-02-05 17:31:00,33.0,16.0,30.22,North,0,0.0,0.0,49,0.00,,,0.04,,2013-02-06 00:31:00,
2013-02-05 17:41:00,33.0,16.0,30.22,North,0,0.0,0.0,49,0.00,,,0.04,,2013-02-06 00:41:00,
2013-02-05 17:52:00,32.0,16.0,30.22,North,0,0.0,0.0,52,0.00,,,0.04,,2013-02-06 00:52:00,
2013-02-05 18:01:00,30.0,15.0,30.21,North,0,0.0,0.0,53,0.00,,,0.04,,2013-02-06 01:01:00,
2013-02-05 18:11:00,30.0,15.0,30.21,North,0,0.0,0.0,53,0.00,,,0.04,,2013-02-06 01:11:00,
2013-02-05 18:21:00,28.0,14.0,30.21,North,0,0.0,0.0,55,0.00,,,0.04,,2013-02-06 01:21:00,
2013-02-05 18:31:00,26.0,12.0,30.21,North,0,0.0,0.0,54,0.00,,,0.04,,2013-02-06 01:31:00,
2013-02-05 18:41:00,26.0,12.0,30.21,North,0,0.0,0.0,54,0.00,,,0.04,,2013-02-06 01:41:00,
2013-02-05 18:52:00,26.0,12.0,30.21,North,0,0.0,0.0,54,0.00,,,0.04,,2013-02-06 01:52:00,
2013-02-05 19:01:00,26.0,12.0,30.22,North,0,0.0,0.0,54,0.00,,,0.04,,2013-02-06 02:01:00,
2013-02-05 19:11:00,26.0,12.0,30.22,North,0,0.0,0.0,54,0.00,,,0.04,,2013-02-06 02:11:00,
2013-02-05 19:21:00,26.0,9.0,30.20,North,0,0.0,0.0,49,0.00,,,0.04,,2013-02-06 02:21:00,
2013-02-05 19:31:00,26.0,9.0,30.20,North,0,0.0,0.0,47,0.00,,,0.04,,2013-02-06 02:31:00,
2013-02-05 19:41:00,26.0,9.0,30.20,North,0,0.0,0.0,47,0.00,,,0.04,,2013-02-06 02:41:00,
2013-02-05 19:52:00,25.0,9.0,30.20,North,0,0.0,0.0,50,0.00,,,0.04,,2013-02-06 02:52:00,
2013-02-05 20:02:00,25.0,9.0,30.20,North,0,0.0,0.0,50,0.00,,,0.04,,2013-02-06 03:02:00,
2013-02-05 20:11:00,25.0,9.0,30.20,North,0,0.0,0.0,50,0.00,,,0.04,,2013-02-06 03:11:00,
2013-02-05 20:21:00,25.0,13.0,30.20,North,0,0.0,0.0,59,0.00,,,0.04,,2013-02-06 03:21:00,
2013-02-05 20:31:00,25.0,11.0,30.19,North,0,0.0,0.0,54,0.00,,,0.04,,2013-02-06 03:31:00,
2013-02-05 20:41:00,25.0,11.0,30.19,North,0,0.0,0.0,54,0.00,,,0.04,,2013-02-06 03:41:00,
2013-02-05 20:52:00,32.0,7.0,30.20,North,0,0.0,0.0,34,0.00,,,0.04,,2013-02-06 03:52:00,
2013-02-05 21:01:00,32.0,6.0,30.19,North,0,0.0,0.0,32,0.00,,,0.04,,2013-02-06 04:01:00,
2013-02-05 21:21:00,32.0,6.0,30.19,North,0,0.0,0.0,32,0.00,,,0.04,,2013-02-06 04:21:00,
2013-02-05 21:31:00,33.0,6.0,30.19,North,0,0.0,0.0,31,0.00,,,0.04,,2013-02-06 04:31:00,
2013-02-05 21:41:00,33.0,6.0,30.19,North,0,0.0,0.0,31,0.00,,,0.04,,2013-02-06 04:41:00,
2013-02-05 21:52:00,32.0,6.0,30.19,North,0,0.0,0.0,33,0.00,,,0.04,,2013-02-06 04:52:00,
2013-02-05 22:01:00,32.0,6.0,30.20,North,0,0.0,0.0,32,0.00,,,0.04,,2013-02-06 05:01:00,
2013-02-05 22:22:00,31.0,8.0,30.20,North,0,0.0,0.0,37,0.00,,,0.04,,2013-02-06 05:22:00,
2013-02-05 22:31:00,30.0,8.0,30.20,North,0,0.0,0.0,39,0.00,,,0.04,,2013-02-06 05:31:00,
2013-02-05 22:41:00,30.0,8.0,30.20,North,0,0.0,0.0,39,0.00,,,0.04,,2013-02-06 05:41:00,
2013-02-05 22:53:00,29.0,8.0,30.20,North,0,0.0,0.0,41,0.00,,,0.04,,2013-02-06 05:53:00,
2013-02-05 23:01:00,29.0,8.0,30.20,North,0,0.0,0.0,41,0.00,,,0.04,,2013-02-06 06:01:00,
2013-02-05 23:21:00,29.0,11.0,30.18,North,0,0.0,0.0,46,0.00,,,0.04,,2013-02-06 06:21:00,
2013-02-05 23:31:00,28.0,11.0,30.18,North,0,0.0,0.0,48,0.00,,,0.04,,2013-02-06 06:31:00,
2013-02-05 23:42:00,28.0,11.0,30.18,North,0,0.0,0.0,48,0.00,,,0.04,,2013-02-06 06:42:00,
2013-02-05 23:52:00,28.0,11.0,30.18,North,0,0.0,0.0,48,0.00,,,0.04,,2013-02-06 06:52:00,